LIEE/CAG METAR and TAF weather

Enter ICAO airport designator
Station Type Date Time Source
LIEE METAR 2019/04/25 17:50 UTC NOAA

LIEE 251750Z 14011KT CAVOK 18/15 Q1016


Station Type Date Time Source
LIEE Decoded METAR 2019/04/25 17:50 UTC NOAA

Cagliari / Elmas, Italy (LIEE) 39-15N 009-04E 5M
Apr 25, 2019 - 01:50 PM EDT / 2019.04.25 1750 UTC
Wind: from the SE (140 degrees) at 13 MPH (11 KT):0
Visibility: greater than 7 mile(s):0
Temperature: 64 F (18 C)
Dew Point: 59 F (15 C)
Relative Humidity: 82%
Pressure (altimeter): 30.00 in. Hg (1016 hPa)
ob: LIEE 251750Z 14011KT CAVOK 18/15 Q1016
cycle: 18

Station Type Date Time Source
LIEE TAF 2019/04/25 18:21 UTC NOAA

TAF LIEE 251700Z 2518/2618 15010KT 9999 FEW025
BECMG 2518/2521 VRB04KT
BECMG 2603/2606 34010KT

Example: see airport list